Buxhai — 9HA3289 — position and weather

sailwx.info

Track history (hours):
 
Tides and Currents Weather Stations Pressure Air Temp Water Temp Dewpoint Dewpoint Depression Visibility Wind Speed Wind Dir Waves Ship Positions

Buxhai

Last reported at 2018-Apr-26 07:49 UTC. Time now 2018-Apr-26 11:45 UTC.
Position N 36°11' E 016°56'.

Length 283 m; draft 11.8 m.

Type: Ship (hazmat cat A). MMSI: 229384000.

Date/timePositionNaut miles runAvg speedWind from/ knotsBaromVisibWave heightAir tempDewpointWater temp
2018-Apr-26 07:49N 36°11' E 016°56'1019.6
2018-Apr-26 07:19N 36°12' E 016°44'919.6
2018-Apr-26 06:51N 36°12' E 016°33'719.5
2018-Apr-26 06:30N 36°13' E 016°25'919.4
2018-Apr-26 06:01N 36°14' E 016°13'78246139.3
2018-Apr-26 06:00N 23°12' E 016°06'7821598.7 190 / 111015.8 5.4 18.615.118.0
2018-Apr-26 05:30N 36°14' E 016°01'1019.4
2018-Apr-26 04:59N 36°15' E 015°48'919.4
2018-Apr-26 04:30N 36°16' E 015°37'1019.3
2018-Apr-26 04:00N 36°16' E 015°25'1019.2
2018-Apr-26 03:30N 36°17' E 015°13'1019.5
2018-Apr-26 03:00N 36°18' E 015°01'1019.7
2018-Apr-26 02:31N 36°19' E 014°49'1019.8
2018-Apr-26 02:01N 36°20' E 014°37'1019.6
2018-Apr-26 01:30N 36°23' E 014°25'1019.4
2018-Apr-26 01:00N 36°27' E 014°14'1019.5
2018-Apr-26 00:30N 36°30' E 014°02'1019.7
2018-Apr-26 00:00N 36°33' E 013°50'3390.2
2018-Apr-26 00:00N 36°30' E 013°48'919.0 090 / 91016.210.8 19.016.417.0
2018-Apr-25 23:30N 36°36' E 013°39'1019.6
2018-Apr-25 23:00N 36°39' E 013°27'1019.5
2018-Apr-25 22:30N 36°43' E 013°16'1019.5
2018-Apr-25 22:00N 36°46' E 013°05'1019.5
2018-Apr-25 21:30N 36°50' E 012°54'1019.2
2018-Apr-25 21:01N 36°53' E 012°42'1019.4
2018-Apr-25 20:30N 36°56' E 012°31'1019.8
2018-Apr-25 20:00N 36°60' E 012°19'1019.4
2018-Apr-25 19:30N 37°03' E 012°08'1019.6
2018-Apr-25 19:00N 37°06' E 011°56'1019.4
2018-Apr-25 18:28N 37°10' E 011°44'919.6
2018-Apr-25 17:59N 37°13' E 011°33'1019.7
2018-Apr-25 17:30N 37°16' E 011°22'1219.6
2018-Apr-25 16:53N 37°23' E 011°09'819.7
2018-Apr-25 16:30N 37°25' E 010°59'1019.7
2018-Apr-25 15:59N 37°28' E 010°47'20020.0
2018-Apr-25 06:00N 37°24' E 006°36'3516.8 140 / 121013.9 5.4 18.416.217.0
2018-Apr-25 03:53N 37°23' E 005°52'6519.6
2018-Apr-25 00:34N 37°13' E 004°31'619.5
2018-Apr-25 00:15N 37°12' E 004°23'519.5
2018-Apr-25 00:00N 37°11' E 004°17'4361.1
2018-Apr-25 00:00N 37°12' E 004°12'914.2 090 / 211012.3 5.4 18.016.016.0
2018-Apr-24 23:20N 37°09' E 004°01'1020.0
2018-Apr-24 22:49N 37°07' E 003°48'619.7
2018-Apr-24 22:30N 37°07' E 003°40'919.2
2018-Apr-24 22:00N 37°05' E 003°29'918.8
2018-Apr-24 21:30N 37°04' E 003°17'1418.9
2018-Apr-24 20:45N 37°01' E 002°59'23083.5
2018-Apr-24 18:00N 36°48' W 001°48'174908.1 100 / 221010.9 2.2 17.515.516.0
2018-Apr-24 17:48N 36°53' E 001°49'23119.6
2018-Apr-24 06:00N 36°12' W 002°54'11319.6 340 / 141013.6 5.4 17.315.516.0
2018-Apr-24 00:13N 35°59' W 005°13'419.6
2018-Apr-24 00:00N 35°59' W 005°18'917.9
2018-Apr-23 23:31N 35°57' W 005°29'10919.7
2018-Apr-23 18:00N 36°12' W 007°42'9418.4 330 / 91011.910.8 19.515.417.0
2018-Apr-23 12:51N 36°47' W 009°31'719.5
2018-Apr-23 12:28N 36°53' W 009°36'919.7
2018-Apr-23 12:00N 37°02' W 009°38'3218.0
2018-Apr-23 12:00N 37°00' W 009°36'1225.5 360 / 141015.1 2.2 22.014.415.0
2018-Apr-23 11:30N 37°12' W 009°41'1019.6
2018-Apr-23 11:00N 37°21' W 009°44'1019.9
2018-Apr-23 10:30N 37°31' W 009°47'1020.0
2018-Apr-23 10:01N 37°41' W 009°50'1019.6
2018-Apr-23 09:30N 37°50' W 009°53'1019.6
2018-Apr-23 09:01N 37°60' W 009°55'1019.3
2018-Apr-23 08:30N 38°09' W 009°57'1019.1
2018-Apr-23 08:00N 38°19' W 010°00'1019.3
2018-Apr-23 07:30N 38°28' W 010°03'1019.5
2018-Apr-23 07:00N 38°38' W 010°06'1019.4
2018-Apr-23 06:30N 38°47' W 010°07'1019.5
2018-Apr-23 06:00N 38°57' W 010°08'3209.4
2018-Apr-23 06:00N 38°54' W 010°06'1326.3 030 / 181016.3 5.4 14.712.914.0
2018-Apr-23 05:30N 39°07' W 010°08'1019.5
2018-Apr-23 05:00N 39°17' W 010°07'3119.9
2018-Apr-23 03:27N 39°47' W 010°08'6719.3
2018-Apr-23 00:00N 40°54' W 010°06'23319.4 360 / 191017.910.8 14.011.914.0
2018-Apr-22 12:00N 44°42' W 009°00'12120.2 280 / 101017.810.8 14.011.013.0
2018-Apr-22 06:00N 46°30' W 007°42'13419.1 290 / 181014.010.8 12.510.713.0
2018-Apr-21 22:58N 48°29' W 006°09'1019.5
2018-Apr-21 22:29N 48°37' W 006°02'1019.1
2018-Apr-21 21:56N 48°46' W 005°55'818.7
2018-Apr-21 21:30N 48°54' W 005°49'1117.7
2018-Apr-21 20:53N 48°59' W 005°36'717.0
2018-Apr-21 20:30N 49°03' W 005°27'815.8
2018-Apr-21 20:00N 49°07' W 005°17'3517.3
2018-Apr-21 18:00N 49°24' W 004°30'3416.8 170 / 131014.1 5.4 22.211.911.0
2018-Apr-21 15:58N 49°42' W 003°45'1319.4
2018-Apr-21 15:18N 49°49' W 003°28'619.2
2018-Apr-21 14:59N 49°52' W 003°20'918.7
2018-Apr-21 14:30N 49°55' W 003°07'917.9
2018-Apr-21 14:00N 49°59' W 002°55'917.2
2018-Apr-21 13:30N 50°02' W 002°42'816.3
2018-Apr-21 13:00N 50°04' W 002°29'815.5
2018-Apr-21 12:30N 50°03' W 002°18'714.8
2018-Apr-21 12:00N 50°03' W 002°06'3188.9
2018-Apr-21 12:00N 50°00' W 002°06'815.6 100 / 81019.6 2.2 17.0 9.210.0
2018-Apr-21 11:31N 50°03' W 001°55'713.5
2018-Apr-21 11:00N 50°03' W 001°45'713.1
2018-Apr-21 10:30N 50°02' W 001°35'612.2
2018-Apr-21 10:00N 49°59' W 001°26'611.7
2018-Apr-21 09:30N 49°56' W 001°18'611.6
2018-Apr-21 09:00N 49°54' W 001°10'612.3
2018-Apr-21 08:31N 49°50' W 001°02'713.3
2018-Apr-21 08:01N 49°47' W 000°53'713.9
2018-Apr-21 07:31N 49°44' W 000°44'714.4
2018-Apr-21 07:00N 49°41' W 000°34'714.5
2018-Apr-21 06:31N 49°37' W 000°24'713.9
2018-Apr-21 06:00N 49°34' W 000°15'612.0
2018-Apr-21 05:30N 49°32' W 000°06'5 9.6
2018-Apr-21 05:00N 49°30' E 000°01'4 8.6
2018-Apr-21 04:30N 49°28' E 000°07'1 1.9
2018-Apr-21 04:00N 49°28' E 000°08'0 0.0
2018-Apr-21 03:27N 49°28' E 000°08'0 0.0
2018-Apr-21 03:00N 49°28' E 000°08'0 0.0
2018-Apr-21 02:30N 49°28' E 000°08'0 0.0
2018-Apr-21 01:59N 49°28' E 000°08'0 0.0
2018-Apr-21 01:29N 49°28' E 000°08'0 0.0
2018-Apr-21 00:59N 49°28' E 000°08'0 0.0
2018-Apr-21 00:29N 49°28' E 000°08'0 0.0
2018-Apr-20 23:58N 49°28' E 000°08'0 0.0
2018-Apr-20 23:28N 49°28' E 000°08'0 0.0
2018-Apr-20 22:58N 49°28' E 000°08'0 0.0
2018-Apr-20 22:28N 49°28' E 000°08'0 0.0
2018-Apr-20 21:58N 49°28' E 000°08'0 0.0
2018-Apr-20 21:30N 49°28' E 000°08'0 0.0
2018-Apr-20 21:00N 49°28' E 000°08'0 0.0
2018-Apr-20 20:30N 49°28' E 000°08'0 0.0
2018-Apr-20 20:00N 49°28' E 000°08'0 0.0
2018-Apr-20 19:30N 49°28' E 000°08'0 0.0
2018-Apr-20 18:59N 49°28' E 000°08'0 0.0
2018-Apr-20 18:29N 49°28' E 000°08'0 0.0
2018-Apr-20 17:59N 49°28' E 000°08'0 0.0
2018-Apr-20 17:29N 49°28' E 000°08'0 0.0
2018-Apr-20 16:58N 49°28' E 000°08'0 0.0
2018-Apr-20 16:28N 49°28' E 000°08'0 0.0
2018-Apr-20 15:58N 49°28' E 000°08'0 0.0
2018-Apr-20 15:28N 49°28' E 000°08'0 0.0
2018-Apr-20 14:58N 49°28' E 000°08'0 0.0
2018-Apr-20 14:30N 49°28' E 000°08'0 0.0
2018-Apr-20 14:00N 49°28' E 000°08'0 0.0
2018-Apr-20 13:30N 49°28' E 000°08'0 0.0
2018-Apr-20 13:00N 49°28' E 000°08'0 0.0
2018-Apr-20 12:29N 49°28' E 000°08'0 0.0
2018-Apr-20 11:59N 49°28' E 000°08'0 0.0
2018-Apr-20 11:29N 49°28' E 000°08'0 0.0
2018-Apr-20 10:59N 49°28' E 000°08'0 0.0
2018-Apr-20 10:29N 49°28' E 000°08'0 0.0
2018-Apr-20 09:58N 49°28' E 000°08'0 0.0
2018-Apr-20 09:28N 49°28' E 000°08'0 0.0
2018-Apr-20 08:58N 49°28' E 000°08'0 0.0
2018-Apr-20 08:28N 49°28' E 000°08'0 0.0
2018-Apr-20 08:01N 49°28' E 000°08'0 0.0
2018-Apr-20 07:30N 49°28' E 000°08'0 0.0
2018-Apr-20 06:59N 49°28' E 000°08'0 0.0
2018-Apr-20 06:30N 49°28' E 000°08'0 0.0
2018-Apr-20 06:00N 49°28' E 000°08'0 0.0
2018-Apr-20 05:29N 49°28' E 000°08'0 0.0
2018-Apr-20 04:59N 49°28' E 000°08'0 0.0
2018-Apr-20 04:29N 49°28' E 000°08'0 0.0
2018-Apr-20 03:59N 49°28' E 000°08'0 0.0
2018-Apr-20 03:29N 49°28' E 000°08'0 0.0
2018-Apr-20 02:58N 49°28' E 000°08'0 0.0
2018-Apr-20 02:28N 49°28' E 000°08'0 0.0
2018-Apr-20 01:58N 49°28' E 000°08'0 0.0
2018-Apr-20 01:28N 49°28' E 000°08'0 0.0
2018-Apr-20 01:00N 49°28' E 000°08'0 0.0
2018-Apr-20 00:30N 49°28' E 000°08'0 0.0
2018-Apr-20 00:00N 49°28' E 000°08'0 0.0
2018-Apr-19 23:30N 49°28' E 000°08'0 0.0
2018-Apr-19 23:00N 49°28' E 000°08'0 0.0
2018-Apr-19 22:29N 49°28' E 000°08'0 0.0
2018-Apr-19 21:59N 49°28' E 000°08'0 0.0
2018-Apr-19 21:29N 49°28' E 000°08'0 0.0
2018-Apr-19 20:59N 49°28' E 000°08'0 0.0
2018-Apr-19 20:29N 49°28' E 000°08'0 0.0
2018-Apr-19 19:58N 49°28' E 000°08'0 0.0
2018-Apr-19 19:28N 49°28' E 000°08'0 0.0
2018-Apr-19 18:58N 49°28' E 000°08'0 0.0
2018-Apr-19 18:28N 49°28' E 000°08'0 0.0
2018-Apr-19 18:00N 49°28' E 000°08'0 0.0
2018-Apr-19 17:30N 49°28' E 000°08'0 0.0
2018-Apr-19 17:00N 49°28' E 000°08'0 0.0
2018-Apr-19 16:30N 49°28' E 000°08'0 0.0
2018-Apr-19 16:00N 49°28' E 000°08'0 0.0
2018-Apr-19 15:29N 49°28' E 000°08'0 0.0
2018-Apr-19 14:59N 49°28' E 000°08'0 0.0
2018-Apr-19 14:29N 49°28' E 000°08'0 0.0
2018-Apr-19 13:59N 49°28' E 000°08'0 0.0
2018-Apr-19 13:28N 49°28' E 000°08'0 0.0
2018-Apr-19 12:58N 49°28' E 000°08'0 0.0
2018-Apr-19 12:28N 49°28' E 000°08'0 0.0
2018-Apr-19 11:58N 49°28' E 000°08'0 0.0
2018-Apr-19 11:28N 49°28' E 000°08'0 0.0
2018-Apr-19 11:00N 49°28' E 000°08'0 0.0
2018-Apr-19 10:30N 49°28' E 000°08'0 0.0
2018-Apr-19 10:00N 49°28' E 000°08'0 0.0
2018-Apr-19 09:30N 49°28' E 000°08'0 0.0
2018-Apr-19 09:00N 49°28' E 000°08'0 0.0
2018-Apr-19 08:29N 49°28' E 000°08'0 0.0
2018-Apr-19 07:59N 49°28' E 000°08'0 0.0
2018-Apr-19 07:29N 49°28' E 000°08'0 0.0
2018-Apr-19 06:59N 49°28' E 000°08'0 0.0
2018-Apr-19 06:28N 49°28' E 000°08'0 0.0
2018-Apr-19 05:58N 49°28' E 000°08'0 0.0
2018-Apr-19 05:28N 49°28' E 000°08'0 0.0
2018-Apr-19 04:58N 49°28' E 000°08'0 0.0
2018-Apr-19 04:28N 49°28' E 000°08'0 0.0
2018-Apr-19 04:00N 49°28' E 000°08'0 0.0
2018-Apr-19 03:30N 49°28' E 000°08'0 0.0
2018-Apr-19 03:00N 49°28' E 000°08'0 0.0
2018-Apr-19 02:30N 49°28' E 000°08'0 0.0
2018-Apr-19 01:59N 49°28' E 000°08'0 0.0
2018-Apr-19 01:29N 49°28' E 000°08'0 0.0
2018-Apr-19 00:59N 49°28' E 000°08'0 0.0
2018-Apr-19 00:29N 49°28' E 000°08'0 0.0
2018-Apr-18 23:59N 49°28' E 000°08'0 0.0
2018-Apr-18 23:28N 49°28' E 000°08'0 0.0
2018-Apr-18 22:58N 49°28' E 000°08'0 0.0
2018-Apr-18 22:28N 49°28' E 000°08'0 0.0
2018-Apr-18 21:58N 49°28' E 000°08'0 0.0
2018-Apr-18 21:28N 49°28' E 000°08'0 0.0
2018-Apr-18 21:00N 49°28' E 000°08'0 0.0
2018-Apr-18 20:27N 49°28' E 000°08'0 0.0
2018-Apr-18 20:00N 49°28' E 000°08'0 0.0
2018-Apr-18 19:30N 49°28' E 000°08'0 0.0
2018-Apr-18 18:59N 49°28' E 000°08'0 0.0
2018-Apr-18 18:29N 49°28' E 000°08'0 0.0
2018-Apr-18 17:59N 49°28' E 000°08'0 0.0
2018-Apr-18 17:29N 49°28' E 000°08'0 0.0
2018-Apr-18 16:59N 49°28' E 000°08'0 0.0
2018-Apr-18 16:28N 49°28' E 000°08'0 0.0
2018-Apr-18 15:58N 49°28' E 000°08'0 0.0
2018-Apr-18 15:28N 49°28' E 000°08'0 0.0
2018-Apr-18 14:58N 49°28' E 000°08'0 0.0
2018-Apr-18 14:31N 49°28' E 000°08'0 0.0
2018-Apr-18 14:00N 49°28' E 000°08'0 0.0
2018-Apr-18 13:30N 49°28' E 000°08'0 0.0
2018-Apr-18 12:57N 49°28' E 000°08'0 0.0
2018-Apr-18 12:30N 49°28' E 000°08'0 0.0
2018-Apr-18 11:59N 49°28' E 000°08'0 0.1
2018-Apr-18 11:30N 49°28' E 000°08'1 1.7
2018-Apr-18 11:00N 49°28' E 000°07'5 9.2
2018-Apr-18 10:30N 49°30' E 000°01'612.9
2018-Apr-18 10:00N 49°32' W 000°09'3 5.7
2018-Apr-18 09:30N 49°34' W 000°12'3 6.1
2018-Apr-18 09:00N 49°36' W 000°15'4 7.3
2018-Apr-18 08:30N 49°40' W 000°15'4 8.5
2018-Apr-18 08:00N 49°44' W 000°13'510.5
2018-Apr-18 07:30N 49°49' W 000°11'611.6
2018-Apr-18 07:00N 49°55' W 000°11'612.1
2018-Apr-18 06:30N 50°01' W 000°10'712.5
2018-Apr-18 05:59N 50°07' W 000°09'612.2
2018-Apr-18 05:29N 50°13' W 000°08'612.2
2018-Apr-18 05:00N 50°19' W 000°07'612.3
2018-Apr-18 04:30N 50°25' W 000°06'611.5
2018-Apr-18 04:00N 50°29' E 000°01'612.7
2018-Apr-18 03:30N 50°31' E 000°11'612.6
2018-Apr-18 03:00N 50°32' E 000°20'612.6
2018-Apr-18 02:30N 50°34' E 000°30'612.4
2018-Apr-18 02:00N 50°36' E 000°39'612.5
2018-Apr-18 01:30N 50°40' E 000°47'612.6
2018-Apr-18 01:00N 50°44' E 000°55'612.6
2018-Apr-18 00:30N 50°47' E 001°03'712.4
2018-Apr-17 23:59N 50°51' E 001°11'1312.0
2018-Apr-17 22:53N 51°00' E 001°26'411.9
2018-Apr-17 22:30N 51°04' E 001°31'713.0
2018-Apr-17 22:00N 51°08' E 001°39'713.9
2018-Apr-17 21:30N 51°13' E 001°46'714.0
2018-Apr-17 21:01N 51°19' E 001°52'713.7
2018-Apr-17 20:31N 51°24' E 001°59'5 9.8
2018-Apr-17 20:01N 51°23' E 002°07'612.2
2018-Apr-17 19:31N 51°21' E 002°16'612.5
2018-Apr-17 19:01N 51°22' E 002°26'612.6
2018-Apr-17 18:30N 51°23' E 002°36'712.2
2018-Apr-17 17:58N 51°22' E 002°46'715.5
2018-Apr-17 17:31N 51°23' E 002°57'815.6
2018-Apr-17 17:00N 51°24' E 003°10'816.6
2018-Apr-17 16:31N 51°25' E 003°23'714.7
2018-Apr-17 16:00N 51°26' E 003°35'5 9.4
2018-Apr-17 15:30N 51°25' E 003°42'612.5
2018-Apr-17 15:00N 51°21' E 003°49'611.3
2018-Apr-17 14:30N 51°24' E 003°57'3 6.4
2018-Apr-17 14:00N 51°24' E 004°02'5 8.8
2018-Apr-17 13:29N 51°22' E 004°08'3 6.6
2018-Apr-17 12:58N 51°22' E 004°14'4 7.6
2018-Apr-17 12:30N 51°18' E 004°16'2 2.1
2018-Apr-17 11:46N 51°17' E 004°15'0 0.0
2018-Apr-17 11:25N 51°17' E 004°15'0 0.0
2018-Apr-17 10:10N 51°17' E 004°15'0 0.0
2018-Apr-17 10:00N 51°17' E 004°15'0 0.0
2018-Apr-17 09:27N 51°17' E 004°15'0 0.1
2018-Apr-17 08:56N 51°17' E 004°15'0 0.0
2018-Apr-17 08:12N 51°17' E 004°15'0 0.0
2018-Apr-17 07:57N 51°17' E 004°15'0 0.0
2018-Apr-17 07:12N 51°17' E 004°15'0 0.0
2018-Apr-17 06:59N 51°17' E 004°15'0 0.0
2018-Apr-17 06:23N 51°17' E 004°15'0 0.0
2018-Apr-17 05:59N 51°17' E 004°15'0 0.0
2018-Apr-17 05:20N 51°17' E 004°15'0 0.0
2018-Apr-17 04:56N 51°17' E 004°15'0 0.0
2018-Apr-17 04:22N 51°17' E 004°15'0 0.0
2018-Apr-17 03:55N 51°17' E 004°15'0 0.0
2018-Apr-17 03:22N 51°17' E 004°15'0 0.0
2018-Apr-17 02:58N 51°17' E 004°15'0 0.0
2018-Apr-17 01:45N 51°17' E 004°15'0 0.0
2018-Apr-17 01:27N 51°17' E 004°15'0 0.0
2018-Apr-17 00:54N 51°17' E 004°15'0 0.0
2018-Apr-17 00:30N 51°17' E 004°15'0 0.0
2018-Apr-16 23:53N 51°17' E 004°15'0 0.0
2018-Apr-16 23:20N 51°17' E 004°15'0 0.0
2018-Apr-16 22:56N 51°17' E 004°15'0 0.0
2018-Apr-16 22:26N 51°17' E 004°15'0 0.0
2018-Apr-16 21:59N 51°17' E 004°15'0 0.0
2018-Apr-16 21:13N 51°17' E 004°15'0 0.0
2018-Apr-16 20:58N 51°17' E 004°15'0 0.0
2018-Apr-16 20:28N 51°17' E 004°15'0 0.0
2018-Apr-16 19:49N 51°17' E 004°15'0 0.0
2018-Apr-16 19:27N 51°17' E 004°15'0 0.0
2018-Apr-16 19:00N 51°17' E 004°15'0 0.0
2018-Apr-16 18:00N 51°17' E 004°15'0 0.0
2018-Apr-16 17:30N 51°17' E 004°15'0 0.0
2018-Apr-16 16:56N 51°17' E 004°15'0 0.0
2018-Apr-16 16:26N 51°17' E 004°15'0 0.0
2018-Apr-16 15:47N 51°17' E 004°15'0 0.0
2018-Apr-16 15:20N 51°17' E 004°15'0 0.0
2018-Apr-16 14:58N 51°17' E 004°15'0 0.0
2018-Apr-16 14:22N 51°17' E 004°15'0 0.0
2018-Apr-16 13:55N 51°17' E 004°15'0 0.0
2018-Apr-16 13:22N 51°17' E 004°15'0 0.0
2018-Apr-16 12:55N 51°17' E 004°15'0 0.0
2018-Apr-16 12:27N 51°17' E 004°15'0 0.0
2018-Apr-16 12:00N 51°17' E 004°15'0 0.0
2018-Apr-16 11:30N 51°17' E 004°15'1 1.4
2018-Apr-16 11:00N 51°18' E 004°16'2 4.2
2018-Apr-16 10:30N 51°20' E 004°16'3 5.8
2018-Apr-16 10:00N 51°22' E 004°13'5 9.7
2018-Apr-16 09:30N 51°22' E 004°06'510.9
2018-Apr-16 09:00N 51°26' E 003°60'612.8
2018-Apr-16 08:30N 51°21' E 003°53'611.8
2018-Apr-16 08:00N 51°22' E 003°44'  
Track history (hours):
 
Tides and Currents Weather Stations Pressure Air Temp Water Temp Dewpoint Dewpoint Depression Visibility Wind Speed Wind Dir Waves Ship Positions

Buxhai

Last reported at 2018-Apr-26 07:49 UTC. Time now 2018-Apr-26 11:45 UTC.
Position N 36°11' E 016°56'.

Length 283 m; draft 11.8 m.

Type: Ship (hazmat cat A). MMSI: 229384000.

Date/timePositionNaut miles runAvg speedWind from/ knotsBaromVisibWave heightAir tempDewpointWater temp
2018-Apr-26 07:49N 36°11' E 016°56'1019.6
2018-Apr-26 07:19N 36°12' E 016°44'919.6
2018-Apr-26 06:51N 36°12' E 016°33'719.5
2018-Apr-26 06:30N 36°13' E 016°25'919.4
2018-Apr-26 06:01N 36°14' E 016°13'78246139.3
2018-Apr-26 06:00N 23°12' E 016°06'7821598.7 190 / 111015.8 5.4 18.615.118.0
2018-Apr-26 05:30N 36°14' E 016°01'1019.4
2018-Apr-26 04:59N 36°15' E 015°48'919.4
2018-Apr-26 04:30N 36°16' E 015°37'1019.3
2018-Apr-26 04:00N 36°16' E 015°25'1019.2
2018-Apr-26 03:30N 36°17' E 015°13'1019.5
2018-Apr-26 03:00N 36°18' E 015°01'1019.7
2018-Apr-26 02:31N 36°19' E 014°49'1019.8
2018-Apr-26 02:01N 36°20' E 014°37'1019.6
2018-Apr-26 01:30N 36°23' E 014°25'1019.4
2018-Apr-26 01:00N 36°27' E 014°14'1019.5
2018-Apr-26 00:30N 36°30' E 014°02'1019.7
2018-Apr-26 00:00N 36°33' E 013°50'3390.2
2018-Apr-26 00:00N 36°30' E 013°48'919.0 090 / 91016.210.8 19.016.417.0
2018-Apr-25 23:30N 36°36' E 013°39'1019.6
2018-Apr-25 23:00N 36°39' E 013°27'1019.5
2018-Apr-25 22:30N 36°43' E 013°16'1019.5
2018-Apr-25 22:00N 36°46' E 013°05'1019.5
2018-Apr-25 21:30N 36°50' E 012°54'1019.2
2018-Apr-25 21:01N 36°53' E 012°42'1019.4
2018-Apr-25 20:30N 36°56' E 012°31'1019.8
2018-Apr-25 20:00N 36°60' E 012°19'1019.4
2018-Apr-25 19:30N 37°03' E 012°08'1019.6
2018-Apr-25 19:00N 37°06' E 011°56'1019.4
2018-Apr-25 18:28N 37°10' E 011°44'919.6
2018-Apr-25 17:59N 37°13' E 011°33'1019.7
2018-Apr-25 17:30N 37°16' E 011°22'1219.6
2018-Apr-25 16:53N 37°23' E 011°09'819.7
2018-Apr-25 16:30N 37°25' E 010°59'1019.7
2018-Apr-25 15:59N 37°28' E 010°47'20020.0
2018-Apr-25 06:00N 37°24' E 006°36'3516.8 140 / 121013.9 5.4 18.416.217.0
2018-Apr-25 03:53N 37°23' E 005°52'6519.6
2018-Apr-25 00:34N 37°13' E 004°31'619.5
2018-Apr-25 00:15N 37°12' E 004°23'519.5
2018-Apr-25 00:00N 37°11' E 004°17'4361.1
2018-Apr-25 00:00N 37°12' E 004°12'914.2 090 / 211012.3 5.4 18.016.016.0
2018-Apr-24 23:20N 37°09' E 004°01'1020.0
2018-Apr-24 22:49N 37°07' E 003°48'619.7
2018-Apr-24 22:30N 37°07' E 003°40'919.2
2018-Apr-24 22:00N 37°05' E 003°29'918.8
2018-Apr-24 21:30N 37°04' E 003°17'1418.9
2018-Apr-24 20:45N 37°01' E 002°59'23083.5
2018-Apr-24 18:00N 36°48' W 001°48'174908.1 100 / 221010.9 2.2 17.515.516.0
2018-Apr-24 17:48N 36°53' E 001°49'23119.6
2018-Apr-24 06:00N 36°12' W 002°54'11319.6 340 / 141013.6 5.4 17.315.516.0
2018-Apr-24 00:13N 35°59' W 005°13'419.6
2018-Apr-24 00:00N 35°59' W 005°18'917.9
2018-Apr-23 23:31N 35°57' W 005°29'10919.7
2018-Apr-23 18:00N 36°12' W 007°42'9418.4 330 / 91011.910.8 19.515.417.0
2018-Apr-23 12:51N 36°47' W 009°31'719.5
2018-Apr-23 12:28N 36°53' W 009°36'919.7
2018-Apr-23 12:00N 37°02' W 009°38'3218.0
2018-Apr-23 12:00N 37°00' W 009°36'1225.5 360 / 141015.1 2.2 22.014.415.0
2018-Apr-23 11:30N 37°12' W 009°41'1019.6
2018-Apr-23 11:00N 37°21' W 009°44'1019.9
2018-Apr-23 10:30N 37°31' W 009°47'1020.0
2018-Apr-23 10:01N 37°41' W 009°50'1019.6
2018-Apr-23 09:30N 37°50' W 009°53'1019.6
2018-Apr-23 09:01N 37°60' W 009°55'1019.3
2018-Apr-23 08:30N 38°09' W 009°57'1019.1
2018-Apr-23 08:00N 38°19' W 010°00'1019.3
2018-Apr-23 07:30N 38°28' W 010°03'1019.5
2018-Apr-23 07:00N 38°38' W 010°06'1019.4
2018-Apr-23 06:30N 38°47' W 010°07'1019.5
2018-Apr-23 06:00N 38°57' W 010°08'3209.4
2018-Apr-23 06:00N 38°54' W 010°06'1326.3 030 / 181016.3 5.4 14.712.914.0
2018-Apr-23 05:30N 39°07' W 010°08'1019.5
2018-Apr-23 05:00N 39°17' W 010°07'3119.9
2018-Apr-23 03:27N 39°47' W 010°08'6719.3
2018-Apr-23 00:00N 40°54' W 010°06'23319.4 360 / 191017.910.8 14.011.914.0
2018-Apr-22 12:00N 44°42' W 009°00'12120.2 280 / 101017.810.8 14.011.013.0
2018-Apr-22 06:00N 46°30' W 007°42'13419.1 290 / 181014.010.8 12.510.713.0
2018-Apr-21 22:58N 48°29' W 006°09'1019.5
2018-Apr-21 22:29N 48°37' W 006°02'1019.1
2018-Apr-21 21:56N 48°46' W 005°55'818.7
2018-Apr-21 21:30N 48°54' W 005°49'1117.7
2018-Apr-21 20:53N 48°59' W 005°36'717.0
2018-Apr-21 20:30N 49°03' W 005°27'815.8
2018-Apr-21 20:00N 49°07' W 005°17'3517.3
2018-Apr-21 18:00N 49°24' W 004°30'3416.8 170 / 131014.1 5.4 22.211.911.0
2018-Apr-21 15:58N 49°42' W 003°45'1319.4
2018-Apr-21 15:18N 49°49' W 003°28'619.2
2018-Apr-21 14:59N 49°52' W 003°20'918.7
2018-Apr-21 14:30N 49°55' W 003°07'917.9
2018-Apr-21 14:00N 49°59' W 002°55'917.2
2018-Apr-21 13:30N 50°02' W 002°42'816.3
2018-Apr-21 13:00N 50°04' W 002°29'815.5
2018-Apr-21 12:30N 50°03' W 002°18'714.8
2018-Apr-21 12:00N 50°03' W 002°06'3188.9
2018-Apr-21 12:00N 50°00' W 002°06'815.6 100 / 81019.6 2.2 17.0 9.210.0
2018-Apr-21 11:31N 50°03' W 001°55'713.5
2018-Apr-21 11:00N 50°03' W 001°45'713.1
2018-Apr-21 10:30N 50°02' W 001°35'612.2
2018-Apr-21 10:00N 49°59' W 001°26'611.7
2018-Apr-21 09:30N 49°56' W 001°18'611.6
2018-Apr-21 09:00N 49°54' W 001°10'612.3
2018-Apr-21 08:31N 49°50' W 001°02'713.3
2018-Apr-21 08:01N 49°47' W 000°53'713.9
2018-Apr-21 07:31N 49°44' W 000°44'714.4
2018-Apr-21 07:00N 49°41' W 000°34'714.5
2018-Apr-21 06:31N 49°37' W 000°24'713.9
2018-Apr-21 06:00N 49°34' W 000°15'612.0
2018-Apr-21 05:30N 49°32' W 000°06'5 9.6
2018-Apr-21 05:00N 49°30' E 000°01'4 8.6
2018-Apr-21 04:30N 49°28' E 000°07'1 1.9
2018-Apr-21 04:00N 49°28' E 000°08'0 0.0
2018-Apr-21 03:27N 49°28' E 000°08'0 0.0
2018-Apr-21 03:00N 49°28' E 000°08'0 0.0
2018-Apr-21 02:30N 49°28' E 000°08'0 0.0
2018-Apr-21 01:59N 49°28' E 000°08'0 0.0
2018-Apr-21 01:29N 49°28' E 000°08'0 0.0
2018-Apr-21 00:59N 49°28' E 000°08'0 0.0
2018-Apr-21 00:29N 49°28' E 000°08'0 0.0
2018-Apr-20 23:58N 49°28' E 000°08'0 0.0
2018-Apr-20 23:28N 49°28' E 000°08'0 0.0
2018-Apr-20 22:58N 49°28' E 000°08'0 0.0
2018-Apr-20 22:28N 49°28' E 000°08'0 0.0
2018-Apr-20 21:58N 49°28' E 000°08'0 0.0
2018-Apr-20 21:30N 49°28' E 000°08'0 0.0
2018-Apr-20 21:00N 49°28' E 000°08'0 0.0
2018-Apr-20 20:30N 49°28' E 000°08'0 0.0
2018-Apr-20 20:00N 49°28' E 000°08'0 0.0
2018-Apr-20 19:30N 49°28' E 000°08'0 0.0
2018-Apr-20 18:59N 49°28' E 000°08'0 0.0
2018-Apr-20 18:29N 49°28' E 000°08'0 0.0
2018-Apr-20 17:59N 49°28' E 000°08'0 0.0
2018-Apr-20 17:29N 49°28' E 000°08'0 0.0
2018-Apr-20 16:58N 49°28' E 000°08'0 0.0
2018-Apr-20 16:28N 49°28' E 000°08'0 0.0
2018-Apr-20 15:58N 49°28' E 000°08'0 0.0
2018-Apr-20 15:28N 49°28' E 000°08'0 0.0
2018-Apr-20 14:58N 49°28' E 000°08'0 0.0
2018-Apr-20 14:30N 49°28' E 000°08'0 0.0
2018-Apr-20 14:00N 49°28' E 000°08'0 0.0
2018-Apr-20 13:30N 49°28' E 000°08'0 0.0
2018-Apr-20 13:00N 49°28' E 000°08'0 0.0
2018-Apr-20 12:29N 49°28' E 000°08'0 0.0
2018-Apr-20 11:59N 49°28' E 000°08'0 0.0
2018-Apr-20 11:29N 49°28' E 000°08'0 0.0
2018-Apr-20 10:59N 49°28' E 000°08'0 0.0
2018-Apr-20 10:29N 49°28' E 000°08'0 0.0
2018-Apr-20 09:58N 49°28' E 000°08'0 0.0
2018-Apr-20 09:28N 49°28' E 000°08'0 0.0
2018-Apr-20 08:58N 49°28' E 000°08'0 0.0
2018-Apr-20 08:28N 49°28' E 000°08'0 0.0
2018-Apr-20 08:01N 49°28' E 000°08'0 0.0
2018-Apr-20 07:30N 49°28' E 000°08'0 0.0
2018-Apr-20 06:59N 49°28' E 000°08'0 0.0
2018-Apr-20 06:30N 49°28' E 000°08'0 0.0
2018-Apr-20 06:00N 49°28' E 000°08'0 0.0
2018-Apr-20 05:29N 49°28' E 000°08'0 0.0
2018-Apr-20 04:59N 49°28' E 000°08'0 0.0
2018-Apr-20 04:29N 49°28' E 000°08'0 0.0
2018-Apr-20 03:59N 49°28' E 000°08'0 0.0
2018-Apr-20 03:29N 49°28' E 000°08'0 0.0
2018-Apr-20 02:58N 49°28' E 000°08'0 0.0
2018-Apr-20 02:28N 49°28' E 000°08'0 0.0
2018-Apr-20 01:58N 49°28' E 000°08'0 0.0
2018-Apr-20 01:28N 49°28' E 000°08'0 0.0
2018-Apr-20 01:00N 49°28' E 000°08'0 0.0
2018-Apr-20 00:30N 49°28' E 000°08'0 0.0
2018-Apr-20 00:00N 49°28' E 000°08'0 0.0
2018-Apr-19 23:30N 49°28' E 000°08'0 0.0
2018-Apr-19 23:00N 49°28' E 000°08'0 0.0
2018-Apr-19 22:29N 49°28' E 000°08'0 0.0
2018-Apr-19 21:59N 49°28' E 000°08'0 0.0
2018-Apr-19 21:29N 49°28' E 000°08'0 0.0
2018-Apr-19 20:59N 49°28' E 000°08'0 0.0
2018-Apr-19 20:29N 49°28' E 000°08'0 0.0
2018-Apr-19 19:58N 49°28' E 000°08'0 0.0
2018-Apr-19 19:28N 49°28' E 000°08'0 0.0
2018-Apr-19 18:58N 49°28' E 000°08'0 0.0
2018-Apr-19 18:28N 49°28' E 000°08'0 0.0
2018-Apr-19 18:00N 49°28' E 000°08'0 0.0
2018-Apr-19 17:30N 49°28' E 000°08'0 0.0
2018-Apr-19 17:00N 49°28' E 000°08'0 0.0
2018-Apr-19 16:30N 49°28' E 000°08'0 0.0
2018-Apr-19 16:00N 49°28' E 000°08'0 0.0
2018-Apr-19 15:29N 49°28' E 000°08'0 0.0
2018-Apr-19 14:59N 49°28' E 000°08'0 0.0
2018-Apr-19 14:29N 49°28' E 000°08'0 0.0
2018-Apr-19 13:59N 49°28' E 000°08'0 0.0
2018-Apr-19 13:28N 49°28' E 000°08'0 0.0
2018-Apr-19 12:58N 49°28' E 000°08'0 0.0
2018-Apr-19 12:28N 49°28' E 000°08'0 0.0
2018-Apr-19 11:58N 49°28' E 000°08'0 0.0
2018-Apr-19 11:28N 49°28' E 000°08'0 0.0
2018-Apr-19 11:00N 49°28' E 000°08'0 0.0
2018-Apr-19 10:30N 49°28' E 000°08'0 0.0
2018-Apr-19 10:00N 49°28' E 000°08'0 0.0
2018-Apr-19 09:30N 49°28' E 000°08'0 0.0
2018-Apr-19 09:00N 49°28' E 000°08'0 0.0
2018-Apr-19 08:29N 49°28' E 000°08'0 0.0
2018-Apr-19 07:59N 49°28' E 000°08'0 0.0
2018-Apr-19 07:29N 49°28' E 000°08'0 0.0
2018-Apr-19 06:59N 49°28' E 000°08'0 0.0
2018-Apr-19 06:28N 49°28' E 000°08'0 0.0
2018-Apr-19 05:58N 49°28' E 000°08'0 0.0
2018-Apr-19 05:28N 49°28' E 000°08'0 0.0
2018-Apr-19 04:58N 49°28' E 000°08'0 0.0
2018-Apr-19 04:28N 49°28' E 000°08'0 0.0
2018-Apr-19 04:00N 49°28' E 000°08'0 0.0
2018-Apr-19 03:30N 49°28' E 000°08'0 0.0
2018-Apr-19 03:00N 49°28' E 000°08'0 0.0
2018-Apr-19 02:30N 49°28' E 000°08'0 0.0
2018-Apr-19 01:59N 49°28' E 000°08'0 0.0
2018-Apr-19 01:29N 49°28' E 000°08'0 0.0
2018-Apr-19 00:59N 49°28' E 000°08'0 0.0
2018-Apr-19 00:29N 49°28' E 000°08'0 0.0
2018-Apr-18 23:59N 49°28' E 000°08'0 0.0
2018-Apr-18 23:28N 49°28' E 000°08'0 0.0
2018-Apr-18 22:58N 49°28' E 000°08'0 0.0
2018-Apr-18 22:28N 49°28' E 000°08'0 0.0
2018-Apr-18 21:58N 49°28' E 000°08'0 0.0
2018-Apr-18 21:28N 49°28' E 000°08'0 0.0
2018-Apr-18 21:00N 49°28' E 000°08'0 0.0
2018-Apr-18 20:27N 49°28' E 000°08'0 0.0
2018-Apr-18 20:00N 49°28' E 000°08'0 0.0
2018-Apr-18 19:30N 49°28' E 000°08'0 0.0
2018-Apr-18 18:59N 49°28' E 000°08'0 0.0
2018-Apr-18 18:29N 49°28' E 000°08'0 0.0
2018-Apr-18 17:59N 49°28' E 000°08'0 0.0
2018-Apr-18 17:29N 49°28' E 000°08'0 0.0
2018-Apr-18 16:59N 49°28' E 000°08'0 0.0
2018-Apr-18 16:28N 49°28' E 000°08'0 0.0
2018-Apr-18 15:58N 49°28' E 000°08'0 0.0
2018-Apr-18 15:28N 49°28' E 000°08'0 0.0
2018-Apr-18 14:58N 49°28' E 000°08'0 0.0
2018-Apr-18 14:31N 49°28' E 000°08'0 0.0
2018-Apr-18 14:00N 49°28' E 000°08'0 0.0
2018-Apr-18 13:30N 49°28' E 000°08'0 0.0
2018-Apr-18 12:57N 49°28' E 000°08'0 0.0
2018-Apr-18 12:30N 49°28' E 000°08'0 0.0
2018-Apr-18 11:59N 49°28' E 000°08'0 0.1
2018-Apr-18 11:30N 49°28' E 000°08'1 1.7
2018-Apr-18 11:00N 49°28' E 000°07'5 9.2
2018-Apr-18 10:30N 49°30' E 000°01'612.9
2018-Apr-18 10:00N 49°32' W 000°09'3 5.7
2018-Apr-18 09:30N 49°34' W 000°12'3 6.1
2018-Apr-18 09:00N 49°36' W 000°15'4 7.3
2018-Apr-18 08:30N 49°40' W 000°15'4 8.5
2018-Apr-18 08:00N 49°44' W 000°13'510.5
2018-Apr-18 07:30N 49°49' W 000°11'611.6
2018-Apr-18 07:00N 49°55' W 000°11'612.1
2018-Apr-18 06:30N 50°01' W 000°10'712.5
2018-Apr-18 05:59N 50°07' W 000°09'612.2
2018-Apr-18 05:29N 50°13' W 000°08'612.2
2018-Apr-18 05:00N 50°19' W 000°07'612.3
2018-Apr-18 04:30N 50°25' W 000°06'611.5
2018-Apr-18 04:00N 50°29' E 000°01'612.7
2018-Apr-18 03:30N 50°31' E 000°11'612.6
2018-Apr-18 03:00N 50°32' E 000°20'612.6
2018-Apr-18 02:30N 50°34' E 000°30'612.4
2018-Apr-18 02:00N 50°36' E 000°39'612.5
2018-Apr-18 01:30N 50°40' E 000°47'612.6
2018-Apr-18 01:00N 50°44' E 000°55'612.6
2018-Apr-18 00:30N 50°47' E 001°03'712.4
2018-Apr-17 23:59N 50°51' E 001°11'1312.0
2018-Apr-17 22:53N 51°00' E 001°26'411.9
2018-Apr-17 22:30N 51°04' E 001°31'713.0
2018-Apr-17 22:00N 51°08' E 001°39'713.9
2018-Apr-17 21:30N 51°13' E 001°46'714.0
2018-Apr-17 21:01N 51°19' E 001°52'713.7
2018-Apr-17 20:31N 51°24' E 001°59'5 9.8
2018-Apr-17 20:01N 51°23' E 002°07'612.2
2018-Apr-17 19:31N 51°21' E 002°16'612.5
2018-Apr-17 19:01N 51°22' E 002°26'612.6
2018-Apr-17 18:30N 51°23' E 002°36'712.2
2018-Apr-17 17:58N 51°22' E 002°46'715.5
2018-Apr-17 17:31N 51°23' E 002°57'815.6
2018-Apr-17 17:00N 51°24' E 003°10'816.6
2018-Apr-17 16:31N 51°25' E 003°23'714.7
2018-Apr-17 16:00N 51°26' E 003°35'5 9.4
2018-Apr-17 15:30N 51°25' E 003°42'612.5
2018-Apr-17 15:00N 51°21' E 003°49'611.3
2018-Apr-17 14:30N 51°24' E 003°57'3 6.4
2018-Apr-17 14:00N 51°24' E 004°02'5 8.8
2018-Apr-17 13:29N 51°22' E 004°08'3 6.6
2018-Apr-17 12:58N 51°22' E 004°14'4 7.6
2018-Apr-17 12:30N 51°18' E 004°16'2 2.1
2018-Apr-17 11:46N 51°17' E 004°15'0 0.0
2018-Apr-17 11:25N 51°17' E 004°15'0 0.0
2018-Apr-17 10:10N 51°17' E 004°15'0 0.0
2018-Apr-17 10:00N 51°17' E 004°15'0 0.0
2018-Apr-17 09:27N 51°17' E 004°15'0 0.1
2018-Apr-17 08:56N 51°17' E 004°15'0 0.0
2018-Apr-17 08:12N 51°17' E 004°15'0 0.0
2018-Apr-17 07:57N 51°17' E 004°15'0 0.0
2018-Apr-17 07:12N 51°17' E 004°15'0 0.0
2018-Apr-17 06:59N 51°17' E 004°15'0 0.0
2018-Apr-17 06:23N 51°17' E 004°15'0 0.0
2018-Apr-17 05:59N 51°17' E 004°15'0 0.0
2018-Apr-17 05:20N 51°17' E 004°15'0 0.0
2018-Apr-17 04:56N 51°17' E 004°15'0 0.0
2018-Apr-17 04:22N 51°17' E 004°15'0 0.0
2018-Apr-17 03:55N 51°17' E 004°15'0 0.0
2018-Apr-17 03:22N 51°17' E 004°15'0 0.0
2018-Apr-17 02:58N 51°17' E 004°15'0 0.0
2018-Apr-17 01:45N 51°17' E 004°15'0 0.0
2018-Apr-17 01:27N 51°17' E 004°15'0 0.0
2018-Apr-17 00:54N 51°17' E 004°15'0 0.0
2018-Apr-17 00:30N 51°17' E 004°15'0 0.0
2018-Apr-16 23:53N 51°17' E 004°15'0 0.0
2018-Apr-16 23:20N 51°17' E 004°15'0 0.0
2018-Apr-16 22:56N 51°17' E 004°15'0 0.0
2018-Apr-16 22:26N 51°17' E 004°15'0 0.0
2018-Apr-16 21:59N 51°17' E 004°15'0 0.0
2018-Apr-16 21:13N 51°17' E 004°15'0 0.0
2018-Apr-16 20:58N 51°17' E 004°15'0 0.0
2018-Apr-16 20:28N 51°17' E 004°15'0 0.0
2018-Apr-16 19:49N 51°17' E 004°15'0 0.0
2018-Apr-16 19:27N 51°17' E 004°15'0 0.0
2018-Apr-16 19:00N 51°17' E 004°15'0 0.0
2018-Apr-16 18:00N 51°17' E 004°15'0 0.0
2018-Apr-16 17:30N 51°17' E 004°15'0 0.0
2018-Apr-16 16:56N 51°17' E 004°15'0 0.0
2018-Apr-16 16:26N 51°17' E 004°15'0 0.0
2018-Apr-16 15:47N 51°17' E 004°15'0 0.0
2018-Apr-16 15:20N 51°17' E 004°15'0 0.0
2018-Apr-16 14:58N 51°17' E 004°15'0 0.0
2018-Apr-16 14:22N 51°17' E 004°15'0 0.0
2018-Apr-16 13:55N 51°17' E 004°15'0 0.0
2018-Apr-16 13:22N 51°17' E 004°15'0 0.0
2018-Apr-16 12:55N 51°17' E 004°15'0 0.0
2018-Apr-16 12:27N 51°17' E 004°15'0 0.0
2018-Apr-16 12:00N 51°17' E 004°15'0 0.0
2018-Apr-16 11:30N 51°17' E 004°15'1 1.4
2018-Apr-16 11:00N 51°18' E 004°16'2 4.2
2018-Apr-16 10:30N 51°20' E 004°16'3 5.8
2018-Apr-16 10:00N 51°22' E 004°13'5 9.7
2018-Apr-16 09:30N 51°22' E 004°06'510.9
2018-Apr-16 09:00N 51°26' E 003°60'612.8
2018-Apr-16 08:30N 51°21' E 003°53'611.8
2018-Apr-16 08:00N 51°22' E 003°44'  

Dump ship's entire track history